Auriesville, New York
Current Conditions -  °F | °C
As of 7:35 PM on Sunday 25 Jan 2015 (Local Time) from KNY0 Reporting Station
Clear Clear  
Wind Chill:   Ceiling: Unl
Heat Index: 11°   Visibility: 10mi
Dew Point: -3°   Wind: 6mph
Humidity: 52%   Direction: 300°WNW
Pressure: 29.96"   Gusts: NA
Location:  42.93°N, 74.32°W
Report Text: KNY0 260035Z AUTO 30005KT 10SM CLR M11/M19 A2996 RMK AO2 T11141194
Loading
Personal Weather Stations






























Interactive Weather Map New forecast layout! Learn more

10-Day Weather Forecast

Advertisements
Track Severe Weather on mobile